Time;durP1;ratioP1;P1;durP2;ratioP2;P2;SDS_P1;SDS_P2;PMS_P1;PMS_P2;Temp;Humidity;BMP_temperature;BMP_pressure;BME280_temperature;BME280_humidity;BME280_pressure;Samples;Min_cycle;Max_cycle;Signal;HPM_P1;HPM_P2
2021/07/19 00:01:26;;;;;;;9.40;7.57;;;;;;;;;;5007800;28;20030;-82
2021/07/19 00:03:52;;;;;;;7.70;6.80;;;;;;;;;;4997717;28;20030;-85
2021/07/19 00:06:18;;;;;;;8.60;7.03;;;;;;;;;;5029096;28;20022;-85
2021/07/19 00:08:44;;;;;;;8.80;7.10;;;;;;;;;;5026231;28;20088;-85
2021/07/19 00:11:10;;;;;;;7.85;6.72;;;;;;;;;;5026179;28;20022;-84
2021/07/19 00:13:38;;;;;;;8.60;7.05;;;;;;;;;;5022099;28;20054;-85
2021/07/19 00:16:04;;;;;;;7.22;6.43;;;;;;;;;;5007357;28;20037;-85
2021/07/19 00:18:30;;;;;;;6.63;5.88;;;;;;;;;;5006288;28;20037;-85
2021/07/19 00:20:58;;;;;;;7.90;6.32;;;;;;;;;;5006501;28;20031;-83
2021/07/19 00:23:24;;;;;;;6.82;6.13;;;;;;;;;;5007185;28;20046;-84
2021/07/19 00:25:51;;;;;;;7.28;6.13;;;;;;;;;;5006881;28;20030;-85
2021/07/19 00:28:17;;;;;;;6.00;5.38;;;;;;;;;;5005307;28;20030;-83
2021/07/19 00:30:43;;;;;;;6.88;6.15;;;;;;;;;;5009568;28;20038;-84
2021/07/19 00:33:10;;;;;;;6.30;5.65;;;;;;;;;;5011390;28;20033;-84
2021/07/19 00:35:37;;;;;;;6.72;5.80;;;;;;;;;;5024476;28;20034;-85
2021/07/19 00:38:03;;;;;;;6.55;5.85;;;;;;;;;;5032745;28;20081;-84
2021/07/19 00:40:35;;;;;;;6.93;6.22;;;;;;;;;;5032651;28;20084;-84
2021/07/19 00:43:02;;;;;;;9.13;7.90;;;;;;;;;;5018911;28;20405;-85
2021/07/19 00:45:28;;;;;;;8.02;7.18;;;;;;;;;;5008661;28;20049;-85
2021/07/19 00:47:56;;;;;;;8.65;7.75;;;;;;;;;;5003298;28;20029;-85
2021/07/19 00:50:23;;;;;;;8.07;7.13;;;;;;;;;;5002510;28;20038;-85
2021/07/19 00:52:56;;;;;;;7.88;6.53;;;;;;;;;;5004460;28;20590;-85
2021/07/19 00:55:23;;;;;;;8.48;6.70;;;;;;;;;;5004689;28;20022;-85
2021/07/19 00:57:50;;;;;;;7.93;7.20;;;;;;;;;;5003455;28;20026;-85
2021/07/19 01:00:16;;;;;;;7.55;6.85;;;;;;;;;;5003837;28;20083;-84
2021/07/19 01:02:44;;;;;;;8.18;7.32;;;;;;;;;;5013968;28;20037;-84
2021/07/19 01:05:10;;;;;;;7.80;7.00;;;;;;;;;;5016368;28;20030;-84
2021/07/19 01:07:38;;;;;;;8.00;7.20;;;;;;;;;;5005093;28;20037;-84
2021/07/19 01:10:08;;;;;;;10.52;7.50;;;;;;;;;;5004027;28;20029;-84
2021/07/19 01:12:34;;;;;;;7.53;6.63;;;;;;;;;;5003447;28;20019;-83
2021/07/19 01:15:00;;;;;;;8.65;7.38;;;;;;;;;;5005081;28;20034;-84
2021/07/19 01:17:26;;;;;;;8.13;7.20;;;;;;;;;;5004828;28;20086;-84
2021/07/19 01:19:54;;;;;;;7.22;6.53;;;;;;;;;;5004705;28;20034;-83
2021/07/19 01:22:29;;;;;;;7.70;7.00;;;;;;;;;;5006300;28;20029;-84
2021/07/19 01:24:55;;;;;;;9.30;7.45;;;;;;;;;;5004536;28;20030;-85
2021/07/19 01:27:24;;;;;;;8.13;7.30;;;;;;;;;;5005423;28;20129;-84
2021/07/19 01:29:51;;;;;;;10.02;7.43;;;;;;;;;;5005092;28;20040;-84
2021/07/19 01:32:17;;;;;;;9.18;8.00;;;;;;;;;;5004904;28;20030;-85
2021/07/19 01:34:44;;;;;;;9.18;8.25;;;;;;;;;;5015742;28;20041;-85
2021/07/19 01:37:11;;;;;;;7.30;6.60;;;;;;;;;;5015323;28;20034;-85
2021/07/19 01:39:38;;;;;;;8.65;7.47;;;;;;;;;;5006224;28;20058;-85
2021/07/19 01:42:05;;;;;;;8.75;7.85;;;;;;;;;;5004491;28;20121;-85
2021/07/19 01:44:31;;;;;;;8.45;7.60;;;;;;;;;;5003584;28;20023;-85
2021/07/19 01:47:00;;;;;;;8.55;7.65;;;;;;;;;;5004396;28;20040;-85
2021/07/19 01:49:26;;;;;;;8.05;7.25;;;;;;;;;;5005498;28;20018;-85
2021/07/19 01:51:53;;;;;;;7.93;7.10;;;;;;;;;;5005110;28;20119;-84
2021/07/19 01:54:20;;;;;;;7.63;6.35;;;;;;;;;;5005443;28;20018;-84
2021/07/19 01:56:46;;;;;;;7.45;6.68;;;;;;;;;;5006976;28;20042;-84
2021/07/19 01:59:13;;;;;;;9.05;6.88;;;;;;;;;;5007211;28;20030;-83
2021/07/19 02:01:40;;;;;;;8.90;7.40;;;;;;;;;;5005421;28;20041;-84
2021/07/19 02:04:06;;;;;;;10.23;8.88;;;;;;;;;;4997863;28;20133;-85
2021/07/19 02:06:33;;;;;;;9.00;8.10;;;;;;;;;;5008458;28;20034;-85
2021/07/19 02:09:03;;;;;;;10.00;7.57;;;;;;;;;;5008310;28;20211;-85
2021/07/19 02:11:29;;;;;;;9.18;7.30;;;;;;;;;;5007112;28;20081;-85
2021/07/19 02:13:57;;;;;;;12.32;8.48;;;;;;;;;;5008117;28;20027;-85
2021/07/19 02:16:23;;;;;;;12.05;9.55;;;;;;;;;;5010191;28;20037;-85
2021/07/19 02:18:50;;;;;;;10.75;8.80;;;;;;;;;;5008762;28;20054;-85
2021/07/19 02:21:19;;;;;;;10.52;8.07;;;;;;;;;;5009862;28;20010;-85
2021/07/19 02:23:46;;;;;;;9.68;8.68;;;;;;;;;;5010310;28;20137;-85
2021/07/19 02:26:13;;;;;;;9.52;8.52;;;;;;;;;;5007647;28;20095;-85
2021/07/19 02:28:39;;;;;;;9.27;7.63;;;;;;;;;;5007993;28;20057;-85
2021/07/19 02:31:06;;;;;;;8.88;7.60;;;;;;;;;;5010422;28;20105;-85
2021/07/19 02:33:33;;;;;;;11.52;8.00;;;;;;;;;;5017276;28;20090;-85
2021/07/19 02:35:59;;;;;;;8.23;7.38;;;;;;;;;;5028659;28;20040;-85
2021/07/19 02:38:27;;;;;;;9.00;7.28;;;;;;;;;;5024721;28;20022;-85
2021/07/19 02:40:54;;;;;;;9.82;7.85;;;;;;;;;;5010837;28;20033;-84
2021/07/19 02:43:22;;;;;;;11.23;8.23;;;;;;;;;;5017456;28;20082;-84
2021/07/19 02:45:48;;;;;;;10.40;8.05;;;;;;;;;;5018753;28;20014;-84
2021/07/19 02:48:15;;;;;;;8.00;7.20;;;;;;;;;;5010573;28;20030;-84
2021/07/19 02:50:42;;;;;;;8.30;6.93;;;;;;;;;;5011250;28;20014;-84
2021/07/19 02:53:10;;;;;;;9.35;7.03;;;;;;;;;;5007818;28;20046;-84
2021/07/19 02:55:37;;;;;;;8.60;7.28;;;;;;;;;;5007474;28;20094;-84
2021/07/19 02:58:05;;;;;;;8.57;7.57;;;;;;;;;;5008850;28;20049;-84
2021/07/19 03:00:32;;;;;;;8.60;6.97;;;;;;;;;;5010772;28;20103;-85
2021/07/19 03:03:00;;;;;;;8.52;7.60;;;;;;;;;;5011220;28;20046;-85
2021/07/19 03:05:29;;;;;;;8.90;7.25;;;;;;;;;;5018480;28;20034;-85
2021/07/19 03:07:57;;;;;;;9.88;7.47;;;;;;;;;;5009749;28;20376;-84
2021/07/19 03:10:24;;;;;;;12.75;8.60;;;;;;;;;;5008769;28;20395;-85
2021/07/19 03:12:52;;;;;;;8.77;7.72;;;;;;;;;;5003539;28;20031;-85
2021/07/19 03:15:18;;;;;;;10.95;8.00;;;;;;;;;;5002059;28;20046;-84
2021/07/19 03:17:45;;;;;;;10.40;7.20;;;;;;;;;;5007957;28;20180;-83
2021/07/19 03:20:11;;;;;;;8.93;7.25;;;;;;;;;;5007424;28;20034;-83
2021/07/19 03:22:38;;;;;;;8.18;7.05;;;;;;;;;;5008309;28;20034;-83
2021/07/19 03:25:05;;;;;;;8.57;7.18;;;;;;;;;;5012979;28;20098;-84
2021/07/19 03:27:32;;;;;;;8.95;6.93;;;;;;;;;;5010952;28;20061;-84
2021/07/19 03:29:59;;;;;;;7.68;6.90;;;;;;;;;;5015498;28;20048;-84
2021/07/19 03:32:25;;;;;;;8.35;7.00;;;;;;;;;;5016254;28;20016;-85
2021/07/19 03:34:52;;;;;;;7.68;6.38;;;;;;;;;;5018113;28;20049;-84
2021/07/19 03:37:18;;;;;;;7.60;6.60;;;;;;;;;;5011781;28;20045;-85
2021/07/19 03:39:45;;;;;;;7.50;6.70;;;;;;;;;;5009504;28;20061;-85
2021/07/19 03:42:13;;;;;;;6.82;5.88;;;;;;;;;;5007698;28;20023;-84
2021/07/19 03:44:40;;;;;;;6.63;5.93;;;;;;;;;;5006994;28;20019;-83
2021/07/19 03:47:07;;;;;;;6.53;5.72;;;;;;;;;;5005669;28;20022;-84
2021/07/19 03:49:34;;;;;;;6.32;5.72;;;;;;;;;;5006588;28;20053;-84
2021/07/19 03:52:00;;;;;;;8.18;6.32;;;;;;;;;;5004993;28;20030;-85
2021/07/19 03:54:26;;;;;;;7.55;6.20;;;;;;;;;;5003836;28;20054;-85
2021/07/19 03:56:52;;;;;;;6.50;5.90;;;;;;;;;;5013281;28;20022;-85
2021/07/19 03:59:20;;;;;;;6.75;6.07;;;;;;;;;;5005056;28;20026;-85
2021/07/19 04:01:47;;;;;;;6.72;6.03;;;;;;;;;;5004858;28;20030;-84
2021/07/19 04:04:19;;;;;;;6.85;6.15;;;;;;;;;;5007237;28;20030;-84
2021/07/19 04:06:46;;;;;;;9.70;6.50;;;;;;;;;;5007776;28;20061;-85
2021/07/19 04:09:12;;;;;;;10.10;7.28;;;;;;;;;;5010872;28;20045;-84
2021/07/19 04:11:39;;;;;;;8.73;6.72;;;;;;;;;;5016132;28;20057;-83
2021/07/19 04:14:07;;;;;;;7.80;6.03;;;;;;;;;;5016521;28;20046;-82
2021/07/19 04:16:33;;;;;;;6.60;5.97;;;;;;;;;;5016405;28;20094;-84
2021/07/19 04:18:59;;;;;;;8.25;5.78;;;;;;;;;;5007877;28;20061;-83
2021/07/19 04:21:25;;;;;;;5.95;5.35;;;;;;;;;;4998497;28;20355;-83
2021/07/19 04:23:53;;;;;;;6.10;5.38;;;;;;;;;;5000436;28;20098;-83
2021/07/19 04:26:19;;;;;;;6.93;6.20;;;;;;;;;;5001234;28;20484;-84
2021/07/19 04:28:45;;;;;;;6.05;5.45;;;;;;;;;;5000036;28;20030;-84
2021/07/19 04:31:16;;;;;;;4.70;4.22;;;;;;;;;;5006913;28;20030;-83
2021/07/19 04:33:45;;;;;;;6.65;5.70;;;;;;;;;;5019289;28;20360;-84
2021/07/19 04:36:11;;;;;;;5.60;5.10;;;;;;;;;;5022979;28;20100;-84
2021/07/19 04:38:37;;;;;;;5.40;4.88;;;;;;;;;;5022740;28;20025;-84
2021/07/19 04:41:04;;;;;;;5.63;5.07;;;;;;;;;;5029311;28;20033;-84
2021/07/19 04:43:30;;;;;;;5.30;4.80;;;;;;;;;;5015271;28;20386;-84
2021/07/19 04:45:56;;;;;;;5.72;5.13;;;;;;;;;;5008538;28;20057;-83
2021/07/19 04:48:22;;;;;;;5.15;4.43;;;;;;;;;;5006533;28;20085;-83
2021/07/19 04:50:49;;;;;;;5.57;4.70;;;;;;;;;;5004470;28;20026;-84
2021/07/19 04:53:15;;;;;;;5.15;4.65;;;;;;;;;;5011416;28;20018;-84
2021/07/19 04:55:51;;;;;;;6.22;4.70;;;;;;;;;;5008579;28;20029;-83
2021/07/19 04:58:21;;;;;;;4.85;4.35;;;;;;;;;;5004057;28;20080;-85
2021/07/19 05:00:49;;;;;;;5.13;4.40;;;;;;;;;;5001501;28;20080;-84
2021/07/19 05:03:17;;;;;;;4.50;4.10;;;;;;;;;;5007795;28;20030;-84
2021/07/19 05:05:44;;;;;;;4.70;4.30;;;;;;;;;;4980923;28;20073;-84
2021/07/19 05:08:10;;;;;;;4.82;4.38;;;;;;;;;;5002837;28;20050;-83
2021/07/19 05:10:36;;;;;;;5.43;4.93;;;;;;;;;;5003751;28;20027;-85
2021/07/19 05:13:02;;;;;;;5.20;4.43;;;;;;;;;;5002001;28;20022;-85
2021/07/19 05:15:29;;;;;;;5.55;4.97;;;;;;;;;;4985607;28;20476;-85
2021/07/19 05:17:55;;;;;;;5.70;4.80;;;;;;;;;;5003610;28;20451;-85
2021/07/19 05:20:22;;;;;;;4.53;4.13;;;;;;;;;;5014050;28;20026;-83
2021/07/19 05:22:49;;;;;;;6.35;4.45;;;;;;;;;;5030400;28;20025;-84
2021/07/19 05:25:16;;;;;;;6.38;5.20;;;;;;;;;;5028399;28;20030;-85
2021/07/19 05:28:01;;;;;;;5.90;5.35;;;;;;;;;;5004206;28;20048;-85
2021/07/19 05:30:28;;;;;;;10.15;5.72;;;;;;;;;;5002645;28;20061;-84
2021/07/19 05:32:55;;;;;;;6.25;5.65;;;;;;;;;;5012548;28;20471;-85
2021/07/19 05:35:21;;;;;;;6.75;5.85;;;;;;;;;;5002658;28;20038;-85
2021/07/19 05:37:47;;;;;;;6.28;5.68;;;;;;;;;;5001790;28;20057;-85
2021/07/19 05:40:14;;;;;;;6.15;5.55;;;;;;;;;;5001005;28;20069;-85
2021/07/19 05:42:41;;;;;;;5.68;5.18;;;;;;;;;;5001999;28;20033;-85
2021/07/19 05:45:08;;;;;;;6.35;5.28;;;;;;;;;;4984770;28;20073;-84
2021/07/19 05:47:34;;;;;;;5.28;4.88;;;;;;;;;;5007936;28;20032;-85
2021/07/19 05:50:01;;;;;;;5.75;5.25;;;;;;;;;;5006909;28;20022;-84
2021/07/19 05:52:27;;;;;;;6.65;5.38;;;;;;;;;;5008246;28;20034;-84
2021/07/19 05:55:27;;;;;;;5.45;4.90;;;;;;;;;;5008179;28;20027;-83
2021/07/19 05:57:53;;;;;;;6.00;5.40;;;;;;;;;;4991315;28;20038;-85
2021/07/19 06:00:19;;;;;;;6.43;5.82;;;;;;;;;;5000726;28;20019;-85
2021/07/19 06:02:46;;;;;;;6.15;5.55;;;;;;;;;;5023879;23;20046;-78
2021/07/19 06:05:12;;;;;;;5.63;5.13;;;;;;;;;;4987470;28;20514;-79
2021/07/19 06:07:39;;;;;;;5.80;5.18;;;;;;;;;;4992342;28;20459;-78
2021/07/19 06:10:06;;;;;;;6.13;5.25;;;;;;;;;;4986333;28;20030;-77
2021/07/19 06:12:32;;;;;;;6.95;4.90;;;;;;;;;;4978565;28;20106;-78
2021/07/19 06:14:58;;;;;;;4.90;4.50;;;;;;;;;;4976588;28;20078;-78
2021/07/19 06:17:24;;;;;;;4.72;4.32;;;;;;;;;;4977176;28;20365;-78
2021/07/19 06:19:50;;;;;;;5.13;4.60;;;;;;;;;;4976691;28;20023;-78
2021/07/19 06:22:16;;;;;;;5.43;4.80;;;;;;;;;;4976522;28;20108;-79
2021/07/19 06:24:43;;;;;;;5.88;5.25;;;;;;;;;;4976949;28;20031;-78
2021/07/19 06:27:09;;;;;;;5.55;5.05;;;;;;;;;;4976972;28;20039;-78
2021/07/19 06:29:38;;;;;;;6.55;5.95;;;;;;;;;;4980744;28;20030;-81
2021/07/19 06:32:04;;;;;;;5.30;4.82;;;;;;;;;;4980821;28;20062;-78
2021/07/19 06:34:30;;;;;;;5.85;5.22;;;;;;;;;;5004745;28;20090;-78
2021/07/19 06:36:56;;;;;;;5.50;5.00;;;;;;;;;;4991882;28;20101;-78
2021/07/19 06:39:26;;;;;;;5.03;4.63;;;;;;;;;;4975074;28;20478;-77
2021/07/19 06:41:52;;;;;;;5.70;5.03;;;;;;;;;;4982916;28;20539;-78
2021/07/19 06:44:18;;;;;;;8.40;5.57;;;;;;;;;;4985586;28;20058;-80
2021/07/19 06:46:44;;;;;;;5.75;4.53;;;;;;;;;;4977809;28;20499;-79
2021/07/19 06:49:10;;;;;;;4.78;4.28;;;;;;;;;;4978840;28;20030;-79
2021/07/19 06:51:36;;;;;;;5.10;4.50;;;;;;;;;;4978011;28;20500;-80
2021/07/19 06:54:02;;;;;;;6.72;5.63;;;;;;;;;;4976907;28;20391;-79
2021/07/19 06:56:31;;;;;;;7.05;6.03;;;;;;;;;;4977830;28;20166;-78
2021/07/19 06:58:57;;;;;;;5.30;4.78;;;;;;;;;;4976816;28;20019;-78
2021/07/19 07:01:23;;;;;;;6.03;5.43;;;;;;;;;;4977616;28;20029;-79
2021/07/19 07:03:49;;;;;;;5.20;4.78;;;;;;;;;;4985917;28;20404;-78
2021/07/19 07:06:15;;;;;;;7.28;5.80;;;;;;;;;;4995719;28;20022;-78
2021/07/19 07:08:41;;;;;;;6.22;5.63;;;;;;;;;;4984894;28;20035;-78
2021/07/19 07:11:07;;;;;;;5.68;5.03;;;;;;;;;;4975308;28;20448;-79
2021/07/19 07:13:33;;;;;;;6.15;5.47;;;;;;;;;;4984232;28;20448;-77
2021/07/19 07:15:59;;;;;;;5.15;4.43;;;;;;;;;;4976167;28;20031;-78
2021/07/19 07:18:25;;;;;;;5.40;4.90;;;;;;;;;;4976061;28;20034;-78
2021/07/19 07:20:51;;;;;;;7.28;6.50;;;;;;;;;;4978248;28;20019;-77
2021/07/19 07:23:17;;;;;;;9.48;6.00;;;;;;;;;;4975779;28;20059;-77
2021/07/19 07:25:43;;;;;;;9.70;7.22;;;;;;;;;;4976559;28;20023;-78
2021/07/19 07:28:09;;;;;;;11.70;6.78;;;;;;;;;;4977180;28;20399;-79
2021/07/19 07:30:35;;;;;;;10.85;7.55;;;;;;;;;;4977537;28;20027;-78
2021/07/19 07:33:03;;;;;;;9.52;6.60;;;;;;;;;;4984679;28;20026;-79
2021/07/19 07:35:29;;;;;;;6.82;6.00;;;;;;;;;;4982809;28;20463;-76
2021/07/19 07:37:55;;;;;;;9.20;7.20;;;;;;;;;;4975911;28;20035;-76
2021/07/19 07:40:21;;;;;;;8.80;5.93;;;;;;;;;;4975557;28;20037;-76
2021/07/19 07:42:47;;;;;;;11.50;6.72;;;;;;;;;;4978238;28;20057;-76
2021/07/19 07:45:13;;;;;;;9.45;7.53;;;;;;;;;;4989507;28;20078;-76
2021/07/19 07:47:41;;;;;;;8.52;7.28;;;;;;;;;;4996031;28;20022;-76
2021/07/19 07:50:08;;;;;;;11.25;6.32;;;;;;;;;;4983898;28;20047;-77
2021/07/19 07:52:34;;;;;;;12.15;7.88;;;;;;;;;;4991422;28;20027;-76
2021/07/19 07:55:00;;;;;;;9.52;7.40;;;;;;;;;;4983967;28;20045;-76
2021/07/19 07:57:26;;;;;;;7.32;6.55;;;;;;;;;;4988905;28;20050;-76
2021/07/19 07:59:52;;;;;;;10.63;6.82;;;;;;;;;;4987986;28;20077;-76
2021/07/19 08:02:18;;;;;;;8.13;6.32;;;;;;;;;;4971765;28;20043;-76
2021/07/19 08:04:45;;;;;;;9.95;6.40;;;;;;;;;;4970143;28;20097;-76
2021/07/19 08:07:11;;;;;;;10.98;7.80;;;;;;;;;;5004893;28;20156;-75
2021/07/19 08:09:37;;;;;;;11.38;7.53;;;;;;;;;;5009042;28;20034;-76
2021/07/19 08:12:03;;;;;;;10.13;6.47;;;;;;;;;;4973732;28;20380;-76
2021/07/19 08:14:29;;;;;;;7.90;6.68;;;;;;;;;;4984004;28;20098;-76
2021/07/19 08:16:55;;;;;;;7.88;6.22;;;;;;;;;;4976047;28;20037;-76
2021/07/19 08:19:24;;;;;;;6.45;5.60;;;;;;;;;;4982968;28;20019;-77
2021/07/19 08:21:52;;;;;;;9.10;6.25;;;;;;;;;;4974991;28;20251;-77
2021/07/19 08:24:18;;;;;;;6.80;5.75;;;;;;;;;;4988550;28;20056;-77
2021/07/19 08:26:45;;;;;;;5.65;5.10;;;;;;;;;;4996863;28;20033;-78
2021/07/19 08:29:11;;;;;;;6.72;5.93;;;;;;;;;;4995132;28;20029;-78
2021/07/19 08:31:44;;;;;;;5.78;5.20;;;;;;;;;;4991309;28;20041;-76
2021/07/19 08:34:10;;;;;;;7.00;5.72;;;;;;;;;;4994601;28;20027;-76
2021/07/19 08:36:36;;;;;;;6.45;5.30;;;;;;;;;;4979031;28;20023;-77
2021/07/19 08:39:03;;;;;;;7.45;5.35;;;;;;;;;;5001183;28;20027;-76
2021/07/19 08:41:29;;;;;;;8.10;5.38;;;;;;;;;;4985738;28;20046;-76
2021/07/19 08:43:57;;;;;;;10.60;5.35;;;;;;;;;;4989127;28;20086;-77
2021/07/19 08:46:23;;;;;;;6.53;5.93;;;;;;;;;;4995641;28;20136;-78
2021/07/19 08:48:52;;;;;;;5.57;5.00;;;;;;;;;;4976901;28;20045;-77
2021/07/19 08:51:18;;;;;;;7.25;5.63;;;;;;;;;;4972176;28;20033;-75
2021/07/19 08:53:45;;;;;;;6.60;5.35;;;;;;;;;;4975917;28;20030;-77
2021/07/19 08:56:11;;;;;;;5.50;4.95;;;;;;;;;;4975653;28;20035;-76
2021/07/19 08:58:37;;;;;;;5.97;4.72;;;;;;;;;;4975613;28;20048;-76
2021/07/19 09:01:03;;;;;;;5.75;5.25;;;;;;;;;;4975213;28;20027;-76
2021/07/19 09:03:30;;;;;;;11.25;4.57;;;;;;;;;;4980145;28;20025;-77
2021/07/19 09:05:56;;;;;;;5.88;4.50;;;;;;;;;;4995196;28;20026;-76
2021/07/19 09:08:22;;;;;;;5.47;4.95;;;;;;;;;;4995937;28;20037;-79
2021/07/19 09:10:48;;;;;;;5.10;4.60;;;;;;;;;;4996940;28;20035;-77
2021/07/19 09:13:20;;;;;;;6.28;4.80;;;;;;;;;;4980171;28;20039;-78
2021/07/19 09:15:47;;;;;;;10.55;4.85;;;;;;;;;;4988368;28;20192;-79
2021/07/19 09:18:21;;;;;;;5.80;4.68;;;;;;;;;;4978951;28;20022;-78
2021/07/19 09:20:47;;;;;;;4.93;3.90;;;;;;;;;;4976762;28;20042;-78
2021/07/19 09:23:13;;;;;;;4.40;4.00;;;;;;;;;;4977256;28;20586;-78
2021/07/19 09:25:40;;;;;;;5.57;4.15;;;;;;;;;;4996679;28;20029;-79
2021/07/19 09:28:09;;;;;;;4.55;4.10;;;;;;;;;;5002334;28;20034;-78
2021/07/19 09:30:39;;;;;;;5.72;4.72;;;;;;;;;;4977738;28;20083;-79
2021/07/19 09:33:06;;;;;;;5.47;4.22;;;;;;;;;;4979126;28;20027;-78
2021/07/19 09:35:34;;;;;;;7.70;4.45;;;;;;;;;;4991637;28;20022;-77
2021/07/19 09:38:05;;;;;;;6.47;4.60;;;;;;;;;;4996915;28;20375;-77
2021/07/19 09:40:31;;;;;;;3.83;3.43;;;;;;;;;;4997042;28;20555;-79
2021/07/19 09:42:57;;;;;;;4.55;4.15;;;;;;;;;;5008517;28;20062;-78
2021/07/19 09:45:25;;;;;;;4.43;4.03;;;;;;;;;;4997985;28;20050;-79
2021/07/19 09:47:58;;;;;;;5.90;4.07;;;;;;;;;;4981434;28;20546;-79
2021/07/19 09:50:24;;;;;;;11.85;5.00;;;;;;;;;;4979039;28;20538;-78
2021/07/19 09:52:50;;;;;;;4.82;4.03;;;;;;;;;;4977692;28;20526;-79
2021/07/19 09:55:26;;;;;;;6.13;4.68;;;;;;;;;;4981514;28;20030;-79
2021/07/19 09:57:53;;;;;;;5.63;3.92;;;;;;;;;;4965555;29;20106;-79
2021/07/19 10:00:21;;;;;;;5.85;4.35;;;;;;;;;;4963876;28;20027;-79
2021/07/19 10:02:47;;;;;;;5.25;4.15;;;;;;;;;;4969113;28;20488;-78
2021/07/19 10:05:22;;;;;;;4.30;3.90;;;;;;;;;;4989526;28;20062;-78
2021/07/19 10:07:48;;;;;;;4.43;3.60;;;;;;;;;;4997930;28;20050;-78
2021/07/19 10:10:15;;;;;;;4.10;3.70;;;;;;;;;;4996599;28;20037;-79
2021/07/19 10:12:42;;;;;;;4.45;4.05;;;;;;;;;;4999245;28;20026;-79
2021/07/19 10:15:10;;;;;;;7.57;4.30;;;;;;;;;;4986506;28;20132;-80
2021/07/19 10:17:37;;;;;;;4.30;3.85;;;;;;;;;;4980897;28;20021;-78
2021/07/19 10:20:03;;;;;;;6.53;4.30;;;;;;;;;;4981849;28;20054;-79
2021/07/19 10:22:30;;;;;;;4.30;3.35;;;;;;;;;;4978548;28;20038;-78
2021/07/19 10:24:56;;;;;;;5.18;3.88;;;;;;;;;;4983795;28;20414;-79
2021/07/19 10:27:24;;;;;;;5.78;3.63;;;;;;;;;;4980929;28;20018;-79
2021/07/19 10:29:50;;;;;;;5.20;2.97;;;;;;;;;;4989847;28;20033;-79
2021/07/19 10:32:18;;;;;;;3.45;2.80;;;;;;;;;;4983851;28;20077;-79
2021/07/19 10:34:49;;;;;;;3.17;2.95;;;;;;;;;;4983883;28;20023;-78
2021/07/19 10:37:18;;;;;;;3.80;3.40;;;;;;;;;;4983246;28;20075;-77
2021/07/19 10:39:45;;;;;;;9.90;3.88;;;;;;;;;;4981480;28;20015;-78
2021/07/19 10:42:12;;;;;;;3.50;3.15;;;;;;;;;;4980795;28;20102;-78
2021/07/19 10:44:43;;;;;;;5.97;3.65;;;;;;;;;;4981515;28;20062;-78
2021/07/19 10:47:17;;;;;;;3.50;3.20;;;;;;;;;;4982062;28;20081;-79
2021/07/19 10:49:56;;;;;;;3.63;3.33;;;;;;;;;;4983917;28;20027;-78
2021/07/19 10:52:32;;;;;;;3.63;3.30;;;;;;;;;;4983986;28;20031;-79
2021/07/19 10:55:02;;;;;;;3.53;3.20;;;;;;;;;;4982250;28;20042;-78
2021/07/19 10:57:38;;;;;;;4.22;3.38;;;;;;;;;;4995247;28;20023;-77
2021/07/19 11:00:09;;;;;;;4.20;3.33;;;;;;;;;;4987855;28;20074;-79
2021/07/19 11:02:35;;;;;;;3.58;3.20;;;;;;;;;;4993321;28;20033;-77
2021/07/19 11:05:01;;;;;;;6.22;3.70;;;;;;;;;;4979569;28;20058;-78
2021/07/19 11:07:37;;;;;;;3.53;3.22;;;;;;;;;;4978739;28;20086;-77
2021/07/19 11:10:13;;;;;;;5.35;3.10;;;;;;;;;;4978461;28;20058;-77
2021/07/19 11:12:46;;;;;;;7.72;2.80;;;;;;;;;;4978833;28;20609;-78
2021/07/19 11:15:12;;;;;;;5.35;3.47;;;;;;;;;;4980090;28;20408;-78
2021/07/19 11:17:38;;;;;;;3.30;3.00;;;;;;;;;;4980743;28;20065;-77
2021/07/19 11:20:15;;;;;;;3.30;2.78;;;;;;;;;;4979000;28;20136;-78
2021/07/19 11:22:41;;;;;;;3.38;3.08;;;;;;;;;;4979912;28;20376;-78
2021/07/19 11:25:15;;;;;;;5.25;2.67;;;;;;;;;;4981591;28;20023;-76
2021/07/19 11:27:41;;;;;;;6.18;2.85;;;;;;;;;;4975315;28;20034;-77
2021/07/19 11:30:08;;;;;;;4.95;2.92;;;;;;;;;;4985164;28;20041;-77
2021/07/19 11:32:34;;;;;;;5.22;3.30;;;;;;;;;;4979509;28;20027;-79
2021/07/19 11:35:09;;;;;;;4.45;3.20;;;;;;;;;;4977089;28;20050;-76
2021/07/19 11:37:37;;;;;;;3.75;2.85;;;;;;;;;;4976840;28;20027;-78
2021/07/19 11:40:04;;;;;;;9.93;2.92;;;;;;;;;;4976217;28;20025;-77
2021/07/19 11:42:36;;;;;;;5.20;3.00;;;;;;;;;;4975975;28;20019;-77
2021/07/19 11:45:22;;;;;;;3.88;2.70;;;;;;;;;;4975511;28;20050;-78
2021/07/19 11:47:49;;;;;;;3.70;3.05;;;;;;;;;;4978821;28;20041;-80
2021/07/19 11:50:20;;;;;;;4.05;2.30;;;;;;;;;;4978122;28;20073;-77
2021/07/19 11:52:47;;;;;;;3.47;2.33;;;;;;;;;;4976569;28;20026;-76
2021/07/19 11:55:15;;;;;;;4.68;2.92;;;;;;;;;;4974787;28;20027;-76
2021/07/19 11:57:51;;;;;;;5.03;3.00;;;;;;;;;;4974642;28;20023;-76
2021/07/19 12:00:25;;;;;;;3.53;2.95;;;;;;;;;;4986209;28;20048;-76
2021/07/19 12:03:10;;;;;;;6.78;2.70;;;;;;;;;;4995184;28;20034;-76
2021/07/19 12:05:37;;;;;;;2.53;2.33;;;;;;;;;;4992921;28;20161;-78
2021/07/19 12:08:07;;;;;;;5.43;3.03;;;;;;;;;;4975469;28;20026;-77
2021/07/19 12:10:38;;;;;;;2.75;2.42;;;;;;;;;;4975416;28;20054;-78
2021/07/19 12:13:11;;;;;;;2.78;2.42;;;;;;;;;;4975395;28;20490;-79
2021/07/19 12:15:39;;;;;;;4.97;2.88;;;;;;;;;;4975217;28;20090;-77
2021/07/19 12:18:05;;;;;;;4.45;2.95;;;;;;;;;;4975431;28;20031;-78
2021/07/19 12:20:34;;;;;;;3.60;2.72;;;;;;;;;;4975066;28;20023;-78
2021/07/19 12:23:00;;;;;;;4.68;2.50;;;;;;;;;;4975459;28;20042;-78
2021/07/19 12:25:26;;;;;;;3.63;2.70;;;;;;;;;;4974697;28;20086;-78
2021/07/19 12:27:56;;;;;;;3.22;2.72;;;;;;;;;;4973793;28;20061;-77
2021/07/19 12:30:25;;;;;;;2.60;2.38;;;;;;;;;;4976432;28;20027;-77
2021/07/19 12:32:52;;;;;;;2.78;2.58;;;;;;;;;;4981654;28;20063;-78
2021/07/19 12:35:23;;;;;;;2.80;2.55;;;;;;;;;;4975073;28;20085;-77
2021/07/19 12:38:08;;;;;;;5.85;2.55;;;;;;;;;;4975052;28;20061;-77
2021/07/19 12:40:34;;;;;;;2.50;2.30;;;;;;;;;;4975038;28;20027;-77
2021/07/19 12:43:00;;;;;;;3.88;2.55;;;;;;;;;;4975167;28;20031;-77
2021/07/19 12:45:26;;;;;;;4.07;2.38;;;;;;;;;;4974250;28;20035;-77
2021/07/19 12:47:52;;;;;;;3.38;2.17;;;;;;;;;;4975104;28;20054;-77
2021/07/19 12:50:19;;;;;;;3.97;2.10;;;;;;;;;;4973716;28;20172;-78
2021/07/19 12:52:45;;;;;;;3.78;2.38;;;;;;;;;;4974655;28;20465;-77
2021/07/19 12:55:13;;;;;;;3.42;2.30;;;;;;;;;;4975058;28;20102;-78
2021/07/19 12:57:57;;;;;;;4.97;2.65;;;;;;;;;;4975878;28;20031;-78
2021/07/19 13:00:26;;;;;;;3.50;2.90;;;;;;;;;;4979475;28;20494;-77
2021/07/19 13:03:06;;;;;;;8.90;2.97;;;;;;;;;;4984840;28;20031;-78
2021/07/19 13:05:33;;;;;;;3.35;2.70;;;;;;;;;;4976591;28;20034;-79
2021/07/19 13:07:59;;;;;;;2.53;2.33;;;;;;;;;;4974070;28;20030;-77
2021/07/19 13:10:26;;;;;;;4.45;2.40;;;;;;;;;;4974528;28;20168;-79
2021/07/19 13:12:56;;;;;;;6.85;2.55;;;;;;;;;;4974862;28;20027;-78
2021/07/19 13:15:23;;;;;;;3.10;2.60;;;;;;;;;;4974605;28;20067;-79
2021/07/19 13:18:00;;;;;;;2.30;2.20;;;;;;;;;;4974372;28;20034;-79
2021/07/19 13:20:26;;;;;;;3.60;2.30;;;;;;;;;;4955721;29;20023;-77
2021/07/19 13:22:52;;;;;;;4.75;2.33;;;;;;;;;;4955422;29;20100;-78
2021/07/19 13:25:22;;;;;;;3.05;2.42;;;;;;;;;;4956219;29;20568;-78
2021/07/19 13:27:49;;;;;;;4.47;2.35;;;;;;;;;;4984544;28;20153;-79
2021/07/19 13:30:16;;;;;;;2.78;2.45;;;;;;;;;;4984183;28;20094;-77
2021/07/19 13:32:44;;;;;;;3.38;2.65;;;;;;;;;;4975638;28;20383;-78
2021/07/19 13:35:14;;;;;;;2.40;2.25;;;;;;;;;;4974008;28;20431;-78
2021/07/19 13:37:50;;;;;;;2.03;1.93;;;;;;;;;;4975207;28;20452;-78
2021/07/19 13:40:24;;;;;;;3.92;2.42;;;;;;;;;;4974313;28;20487;-78
2021/07/19 13:43:00;;;;;;;2.92;2.50;;;;;;;;;;4973664;28;20058;-79
2021/07/19 13:45:27;;;;;;;4.00;2.25;;;;;;;;;;4982198;28;20374;-79
2021/07/19 13:47:53;;;;;;;9.13;2.50;;;;;;;;;;4975776;28;20538;-78
2021/07/19 13:50:20;;;;;;;5.25;2.50;;;;;;;;;;4973990;28;20456;-77
2021/07/19 13:52:48;;;;;;;5.43;2.90;;;;;;;;;;4973830;28;20065;-77
2021/07/19 13:55:15;;;;;;;5.22;2.67;;;;;;;;;;4973621;28;20025;-78
2021/07/19 13:57:41;;;;;;;3.53;2.20;;;;;;;;;;4977621;28;20092;-78
2021/07/19 14:00:07;;;;;;;4.25;2.40;;;;;;;;;;4983776;28;20042;-78
2021/07/19 14:02:33;;;;;;;6.57;2.78;;;;;;;;;;5010405;28;20085;-79
2021/07/19 14:04:59;;;;;;;7.88;2.60;;;;;;;;;;4993565;28;20033;-78
2021/07/19 14:07:26;;;;;;;8.15;2.70;;;;;;;;;;4995448;28;20033;-78
2021/07/19 14:09:52;;;;;;;4.78;2.80;;;;;;;;;;4993900;28;20023;-79
2021/07/19 14:12:18;;;;;;;3.17;2.47;;;;;;;;;;4977569;28;20031;-79
2021/07/19 14:14:46;;;;;;;7.15;3.33;;;;;;;;;;4977539;28;20066;-78
2021/07/19 14:17:12;;;;;;;3.65;2.45;;;;;;;;;;4978421;28;20443;-79
2021/07/19 14:19:38;;;;;;;7.10;2.70;;;;;;;;;;4978200;28;20092;-79
2021/07/19 14:22:04;;;;;;;5.15;2.70;;;;;;;;;;4982216;28;20058;-79
2021/07/19 14:24:30;;;;;;;5.55;2.35;;;;;;;;;;4981853;28;20102;-79
2021/07/19 14:26:56;;;;;;;7.30;2.55;;;;;;;;;;4977413;28;20043;-79
2021/07/19 14:29:22;;;;;;;3.10;2.00;;;;;;;;;;4989692;28;20475;-78
2021/07/19 14:31:52;;;;;;;3.45;2.78;;;;;;;;;;4988166;28;20121;-80
2021/07/19 14:34:20;;;;;;;3.00;2.65;;;;;;;;;;4983214;28;20110;-80
2021/07/19 14:36:46;;;;;;;5.88;2.67;;;;;;;;;;4982732;28;20207;-80
2021/07/19 14:39:13;;;;;;;5.75;3.20;;;;;;;;;;4978987;28;20023;-79
2021/07/19 14:41:39;;;;;;;6.03;3.20;;;;;;;;;;4979450;28;20027;-79
2021/07/19 14:44:05;;;;;;;6.85;2.78;;;;;;;;;;4978832;28;20015;-79
2021/07/19 14:46:31;;;;;;;4.55;2.78;;;;;;;;;;4977263;28;20035;-79